createdAt,value
2019-05-15T00:00:15.716Z,102478.11
2019-05-15T00:02:48.165Z,102475.64
2019-05-15T00:05:19.689Z,102468.84
2019-05-15T00:07:51.161Z,102480.81
2019-05-15T00:10:22.481Z,102470.42
2019-05-15T00:12:53.782Z,102470.73
2019-05-15T00:15:25.086Z,102473.08
2019-05-15T00:17:57.881Z,102468.52
2019-05-15T00:20:29.532Z,102466.16
2019-05-15T00:23:00.906Z,102460.13
2019-05-15T00:25:32.243Z,102462.22
2019-05-15T00:28:03.865Z,102452.52
2019-05-15T00:30:35.568Z,102463.83
2019-05-15T00:33:08.916Z,102460.55
2019-05-15T00:35:40.022Z,102463.44
2019-05-15T00:38:11.432Z,102465.83
2019-05-15T00:40:42.737Z,102463.70
2019-05-15T00:43:14.048Z,102467.91
2019-05-15T00:45:45.232Z,102460.06
2019-05-15T00:48:18.330Z,102460.98
2019-05-15T00:50:49.989Z,102459.04
2019-05-15T00:53:21.308Z,102452.74
2019-05-15T00:55:52.664Z,102460.87
2019-05-15T00:58:24.082Z,102455.09
2019-05-15T01:00:55.582Z,102449.98
2019-05-15T01:03:27.993Z,102455.50
2019-05-15T01:05:59.273Z,102454.06
2019-05-15T01:08:30.520Z,102452.52
2019-05-15T01:11:01.772Z,102453.97
2019-05-15T01:13:33.137Z,102447.55
2019-05-15T01:16:04.365Z,102450.70
2019-05-15T01:18:38.323Z,102446.52
2019-05-15T01:21:08.991Z,102444.94
2019-05-15T01:23:40.285Z,102442.58
2019-05-15T01:26:11.476Z,102448.09
2019-05-15T01:28:42.722Z,102446.14
2019-05-15T01:31:14.138Z,102442.59
2019-05-15T01:33:45.456Z,102443.78
2019-05-15T01:36:19.114Z,102446.67
2019-05-15T01:38:49.652Z,102434.20
2019-05-15T01:41:21.132Z,102436.31
2019-05-15T01:43:52.562Z,102438.94
2019-05-15T01:46:24.048Z,102441.44
2019-05-15T01:48:55.466Z,102439.59
2019-05-15T01:51:28.528Z,102440.52
2019-05-15T01:54:00.971Z,102434.22
2019-05-15T01:56:33.880Z,102433.59
2019-05-15T01:59:05.191Z,102429.76
2019-05-15T02:01:38.920Z,102427.70
2019-05-15T02:04:09.716Z,102422.83
2019-05-15T02:06:41.024Z,102424.02
2019-05-15T02:09:12.405Z,102423.36
2019-05-15T02:11:43.676Z,102419.69
2019-05-15T02:14:14.952Z,102424.30
2019-05-15T02:16:48.338Z,102419.44
2019-05-15T02:19:19.526Z,102421.67
2019-05-15T02:21:50.750Z,102418.12
2019-05-15T02:24:22.009Z,102426.92
2019-05-15T02:26:53.409Z,102417.59
2019-05-15T02:29:25.304Z,102414.84
2019-05-15T02:31:59.197Z,102415.10
2019-05-15T02:34:30.395Z,102417.60
2019-05-15T02:37:02.718Z,102411.98
2019-05-15T02:39:34.183Z,102408.44
2019-05-15T02:42:05.490Z,102411.32
2019-05-15T02:44:39.847Z,102419.56
2019-05-15T02:47:10.130Z,102414.46
2019-05-15T02:49:41.651Z,102409.35
2019-05-15T02:52:13.086Z,102407.53
2019-05-15T02:54:44.342Z,102412.11
2019-05-15T02:59:52.945Z,102411.98
2019-05-15T03:02:24.152Z,102408.57
2019-05-15T03:04:55.528Z,102415.12
2019-05-15T03:07:29.292Z,102415.00
2019-05-15T03:10:00.159Z,102413.56
2019-05-15T03:12:31.531Z,102409.09
2019-05-15T03:15:02.724Z,102409.34
2019-05-15T03:17:34.015Z,102407.02
2019-05-15T03:20:05.352Z,102414.21
2019-05-15T03:22:39.682Z,102407.41
2019-05-15T03:25:10.929Z,102403.99
2019-05-15T03:27:42.568Z,102410.00
2019-05-15T03:30:14.816Z,102404.89
2019-05-15T03:32:53.510Z,102406.08
2019-05-15T03:35:22.872Z,102399.27
2019-05-15T03:37:51.864Z,102402.02
2019-05-15T03:40:23.060Z,102406.20
2019-05-15T03:42:54.226Z,102408.83
2019-05-15T03:45:25.639Z,102408.83
2019-05-15T03:47:59.603Z,102412.75
2019-05-15T03:50:29.862Z,102409.20
2019-05-15T03:53:01.106Z,102410.39
2019-05-15T03:55:32.371Z,102413.77
2019-05-15T03:58:03.562Z,102418.12
2019-05-15T04:00:39.243Z,102418.63
2019-05-15T04:03:11.263Z,102417.32
2019-05-15T04:05:42.726Z,102423.99
2019-05-15T04:08:13.918Z,102423.83
2019-05-15T04:10:45.162Z,102423.32
2019-05-15T04:13:19.515Z,102418.85
2019-05-15T04:15:50.114Z,102418.72
2019-05-15T04:18:21.664Z,102419.27
2019-05-15T04:20:52.856Z,102423.28
2019-05-15T04:23:24.084Z,102427.20
2019-05-15T04:25:58.626Z,102430.37
2019-05-15T04:28:29.406Z,102426.70
2019-05-15T04:31:00.978Z,102430.75
2019-05-15T04:33:32.280Z,102429.56
2019-05-15T04:36:03.557Z,102427.41
2019-05-15T04:38:34.812Z,102429.90
2019-05-15T04:41:09.238Z,102430.41
2019-05-15T04:43:44.298Z,102428.47
2019-05-15T04:46:12.047Z,102429.69
2019-05-15T04:48:43.287Z,102427.33
2019-05-15T04:51:14.695Z,102428.13
2019-05-15T04:53:49.895Z,102429.73
2019-05-15T04:56:19.420Z,102430.13
2019-05-15T04:58:51.255Z,102427.38
2019-05-15T05:01:22.623Z,102423.20
2019-05-15T05:03:53.831Z,102427.00
2019-05-15T05:06:25.061Z,102425.56
2019-05-15T05:08:59.464Z,102430.29
2019-05-15T05:11:29.498Z,102425.85
2019-05-15T05:14:00.830Z,102426.48
2019-05-15T05:16:32.267Z,102425.05
2019-05-15T05:19:03.726Z,102425.84
2019-05-15T05:21:34.957Z,102419.42
2019-05-15T05:24:08.073Z,102424.03
2019-05-15T05:26:39.268Z,102423.52
2019-05-15T05:29:10.451Z,102425.62
2019-05-15T05:31:41.680Z,102421.30
2019-05-15T05:34:12.853Z,102418.80
2019-05-15T05:36:44.006Z,102424.42
2019-05-15T05:39:19.958Z,102420.36
2019-05-15T05:41:51.456Z,102421.15
2019-05-15T05:44:22.666Z,102425.61
2019-05-15T05:46:53.959Z,102424.83
2019-05-15T05:49:25.169Z,102420.20
2019-05-15T05:51:58.626Z,102414.05
2019-05-15T05:54:29.264Z,102420.59
2019-05-15T05:57:00.525Z,102416.94
2019-05-15T05:59:31.886Z,102416.13
2019-05-15T06:02:03.240Z,102418.34
2019-05-15T06:04:34.588Z,102412.19
2019-05-15T06:07:13.773Z,102416.09
2019-05-15T06:09:39.798Z,102411.09
2019-05-15T06:12:11.543Z,102413.58
2019-05-15T06:14:42.776Z,102409.49
2019-05-15T06:17:14.003Z,102417.64
2019-05-15T06:19:45.204Z,102414.21
2019-05-15T06:22:18.648Z,102409.23
2019-05-15T06:24:49.662Z,102409.48
2019-05-15T06:27:20.942Z,102411.30
2019-05-15T06:29:52.281Z,102413.39
2019-05-15T06:32:23.789Z,102416.28
2019-05-15T06:34:55.117Z,102410.34
2019-05-15T06:37:28.669Z,102415.33
2019-05-15T06:39:59.769Z,102415.19
2019-05-15T06:42:30.986Z,102412.29
2019-05-15T06:45:02.369Z,102409.02
2019-05-15T06:47:33.900Z,102411.61
2019-05-15T06:50:05.804Z,102416.71
2019-05-15T06:52:38.066Z,102409.37
2019-05-15T06:55:10.764Z,102412.35
2019-05-15T06:57:42.176Z,102407.22
2019-05-15T07:00:13.472Z,102403.75
2019-05-15T07:02:44.985Z,102402.94
2019-05-15T07:05:18.365Z,102398.17
2019-05-15T07:07:50.153Z,102394.47
2019-05-15T07:10:21.614Z,102391.41
2019-05-15T07:12:53.096Z,102392.80
2019-05-15T07:15:24.678Z,102390.78
2019-05-15T07:17:58.017Z,102385.08
2019-05-15T07:20:29.022Z,102384.53
2019-05-15T07:23:00.718Z,102389.89
2019-05-15T07:25:32.365Z,102383.94
2019-05-15T07:28:04.676Z,102379.55
2019-05-15T07:30:40.851Z,102376.87
2019-05-15T07:33:09.242Z,102384.84
2019-05-15T07:35:40.552Z,102379.65
2019-05-15T07:38:11.823Z,102378.42
2019-05-15T07:40:43.247Z,102381.61
2019-05-15T07:43:14.609Z,102376.44
2019-05-15T07:45:52.339Z,102372.64
2019-05-15T07:48:19.169Z,102366.26
2019-05-15T07:50:50.530Z,102365.41
2019-05-15T07:53:21.946Z,102360.72
2019-05-15T07:55:53.259Z,102350.77
2019-05-15T07:58:24.763Z,102345.57
2019-05-15T08:00:58.791Z,102342.97
2019-05-15T08:03:29.433Z,102348.20
2019-05-15T08:06:03.098Z,102352.28
2019-05-15T08:08:34.691Z,102342.84
2019-05-15T08:11:17.419Z,102340.45
2019-05-15T08:13:38.930Z,102337.05
2019-05-15T08:16:10.445Z,102331.02
2019-05-15T08:18:41.727Z,102333.27
2019-05-15T08:21:12.994Z,102330.16
2019-05-15T08:23:44.236Z,102331.53
2019-05-15T08:26:17.816Z,102325.98
2019-05-15T08:28:49.173Z,102320.71
2019-05-15T08:31:20.447Z,102326.13
2019-05-15T08:33:51.720Z,102322.70
2019-05-15T08:36:23.050Z,102320.37
2019-05-15T08:38:54.432Z,102316.75
2019-05-15T08:41:25.658Z,102314.94
2019-05-15T08:43:57.936Z,102323.87
2019-05-15T08:46:31.077Z,102319.34
2019-05-15T08:49:02.428Z,102308.63
2019-05-15T08:51:33.741Z,102307.62
2019-05-15T08:54:05.059Z,102306.51
2019-05-15T08:56:39.130Z,102299.69
2019-05-15T08:59:09.302Z,102300.78
2019-05-15T09:01:40.681Z,102295.52
2019-05-15T09:04:26.750Z,102290.51
2019-05-15T09:06:45.164Z,102282.07
2019-05-15T09:09:18.266Z,102279.22
2019-05-15T09:11:49.786Z,102279.34
2019-05-15T09:14:21.141Z,102276.39
2019-05-15T09:16:52.850Z,102274.73
2019-05-15T09:19:24.236Z,102275.75
2019-05-15T09:21:58.547Z,102269.85
2019-05-15T09:24:29.675Z,102266.99
2019-05-15T09:27:00.987Z,102253.17
2019-05-15T09:29:32.279Z,102254.98
2019-05-15T09:32:03.588Z,102260.22
2019-05-15T09:34:49.068Z,102246.56
2019-05-15T09:37:08.576Z,102242.91
2019-05-15T09:39:40.454Z,102235.77
2019-05-15T09:42:11.664Z,102236.58
2019-05-15T09:44:44.207Z,102226.08
2019-05-15T09:47:15.678Z,102219.19
2019-05-15T09:49:48.474Z,102216.09
2019-05-15T09:52:22.624Z,102208.22
2019-05-15T09:54:52.827Z,102199.50
2019-05-15T09:57:24.037Z,102199.13
2019-05-15T09:59:55.287Z,102195.12
2019-05-15T10:02:28.412Z,102192.48
2019-05-15T10:05:06.770Z,102190.13
2019-05-15T10:07:33.016Z,102177.66
2019-05-15T10:10:16.045Z,102185.12
2019-05-15T10:12:49.478Z,102174.37
2019-05-15T10:15:21.271Z,102184.80
2019-05-15T10:17:52.532Z,102185.08
2019-05-15T10:20:23.821Z,102181.34
2019-05-15T10:22:55.015Z,102181.10
2019-05-15T10:25:28.166Z,102168.45
2019-05-15T10:27:59.424Z,102167.25
2019-05-15T10:30:30.743Z,102166.60
2019-05-15T10:33:02.160Z,102171.98
2019-05-15T10:35:33.561Z,102160.73
2019-05-15T10:38:04.905Z,102161.89
2019-05-15T10:40:36.164Z,102150.97
2019-05-15T10:43:09.014Z,102148.59
2019-05-15T10:45:42.777Z,102142.20
2019-05-15T10:48:13.832Z,102139.70
2019-05-15T10:50:45.261Z,102143.10
2019-05-15T10:53:18.773Z,102138.47
2019-05-15T10:55:50.416Z,102140.87
2019-05-15T10:58:22.392Z,102138.88
2019-05-15T11:00:53.835Z,102135.73
2019-05-15T11:03:25.173Z,102129.92
2019-05-15T11:05:57.948Z,102124.47
2019-05-15T11:08:29.602Z,102121.63
2019-05-15T11:11:01.345Z,102116.41
2019-05-15T11:13:32.707Z,102120.12
2019-05-15T11:16:04.044Z,102109.66
2019-05-15T11:18:35.441Z,102109.44
2019-05-15T11:21:08.239Z,102104.36
2019-05-15T11:23:42.625Z,102091.61
2019-05-15T11:26:12.528Z,102090.17
2019-05-15T11:28:43.769Z,102080.82
2019-05-15T11:31:15.371Z,102087.97
2019-05-15T11:33:49.182Z,102086.90
2019-05-15T11:36:21.459Z,102083.73
2019-05-15T11:38:52.674Z,102075.30
2019-05-15T11:41:23.925Z,102071.39
2019-05-15T11:43:55.117Z,102069.22
2019-05-15T11:46:29.006Z,102067.56
2019-05-15T11:48:59.237Z,102063.39
2019-05-15T11:51:31.747Z,102065.78
2019-05-15T11:54:04.063Z,102062.72
2019-05-15T11:56:35.379Z,102058.48
2019-05-15T11:59:08.553Z,102051.03
2019-05-15T12:01:39.673Z,102056.89
2019-05-15T12:04:25.423Z,102056.14
2019-05-15T12:06:58.206Z,102054.48
2019-05-15T12:09:18.771Z,102057.61
2019-05-15T12:11:50.369Z,102051.09
2019-05-15T12:14:21.571Z,102052.07
2019-05-15T12:17:05.603Z,102039.87
2019-05-15T12:19:28.955Z,102039.13
2019-05-15T12:21:59.820Z,102039.77
2019-05-15T12:24:36.290Z,102037.70
2019-05-15T12:29:39.850Z,102037.16
2019-05-15T12:34:43.090Z,102035.02
2019-05-15T12:37:14.420Z,102029.50
2019-05-15T12:37:59.001Z,102032.05
2019-05-15T12:39:45.758Z,102034.13
2019-05-15T13:00:10.544Z,102015.92
2019-05-15T13:02:41.721Z,102010.27
2019-05-15T13:05:13.117Z,102001.89
2019-05-15T13:07:44.282Z,101996.64
2019-05-15T13:10:18.364Z,101992.66
2019-05-15T13:12:59.523Z,101995.66
2019-05-15T13:15:22.711Z,101984.91
2019-05-15T13:17:54.231Z,101986.71
2019-05-15T13:20:25.385Z,101985.67
2019-05-15T13:22:59.220Z,101987.84
2019-05-15T13:25:29.452Z,101979.31
2019-05-15T13:28:00.732Z,101977.06
2019-05-15T13:30:32.074Z,101973.14
2019-05-15T13:33:03.429Z,101971.75
2019-05-15T13:35:38.057Z,101970.02
2019-05-15T13:38:10.134Z,101972.67
2019-05-15T13:40:42.543Z,101974.00
2019-05-15T13:43:14.080Z,101972.54
2019-05-15T13:45:45.426Z,101972.54
2019-05-15T13:48:19.752Z,101972.83
2019-05-15T13:50:50.229Z,101968.73
2019-05-15T13:53:21.596Z,101965.55
2019-05-15T13:55:52.932Z,101959.31
2019-05-15T13:58:25.279Z,101960.07
2019-05-15T14:00:58.911Z,101959.19
2019-05-15T14:03:29.480Z,101951.98
2019-05-15T14:06:00.741Z,101956.72
2019-05-15T14:08:31.953Z,101953.52
2019-05-15T14:11:03.163Z,101949.82
2019-05-15T14:13:34.470Z,101953.58
2019-05-15T14:16:05.699Z,101954.77
2019-05-15T14:18:39.032Z,101954.26
2019-05-15T14:21:10.293Z,101951.61
2019-05-15T14:23:41.596Z,101958.24
2019-05-15T14:26:20.158Z,101949.80
2019-05-15T14:28:47.992Z,101944.84
2019-05-15T14:31:18.494Z,101935.83
2019-05-15T14:33:49.735Z,101936.23
2019-05-15T14:36:21.039Z,101945.87
2019-05-15T14:38:53.576Z,101934.78
2019-05-15T14:41:24.922Z,101937.77
2019-05-15T14:43:57.825Z,101933.39
2019-05-15T14:46:29.336Z,101935.59
2019-05-15T14:49:00.548Z,101935.98
2019-05-15T14:51:31.968Z,101930.56
2019-05-15T14:54:03.537Z,101931.48
2019-05-15T14:56:34.865Z,101931.08
2019-05-15T14:59:08.492Z,101928.77
2019-05-15T15:01:39.414Z,101921.63
2019-05-15T15:04:10.912Z,101926.05
2019-05-15T15:06:42.478Z,101929.45
2019-05-15T15:09:13.796Z,101925.88
2019-05-15T15:11:45.092Z,101923.80
2019-05-15T15:14:18.041Z,101918.49
2019-05-15T15:16:49.350Z,101919.36
2019-05-15T15:19:20.622Z,101920.55
2019-05-15T15:21:51.934Z,101923.95
2019-05-15T15:24:23.235Z,101919.56
2019-05-15T15:26:58.809Z,101916.05
2019-05-15T15:29:30.229Z,101914.31
2019-05-15T15:32:01.577Z,101914.80
2019-05-15T15:34:32.883Z,101917.47
2019-05-15T15:37:04.095Z,101912.72
2019-05-15T15:39:35.385Z,101911.61
2019-05-15T15:42:08.634Z,101919.28
2019-05-15T15:44:39.885Z,101915.17
2019-05-15T15:47:12.530Z,101913.27
2019-05-15T15:49:43.882Z,101913.55
2019-05-15T15:52:18.104Z,101911.30
2019-05-15T15:54:49.051Z,101908.99
2019-05-15T15:57:20.665Z,101907.73
2019-05-15T15:59:51.847Z,101909.91
2019-05-15T16:02:23.158Z,101905.30
2019-05-15T16:04:54.362Z,101912.14
2019-05-15T16:07:25.769Z,101905.27
2019-05-15T16:09:59.047Z,101901.09
2019-05-15T16:12:30.542Z,101899.70
2019-05-15T16:15:01.821Z,101900.39
2019-05-15T16:17:34.071Z,101900.22
2019-05-15T16:20:06.143Z,101905.87
2019-05-15T16:22:38.138Z,101902.77
2019-05-15T16:25:10.197Z,101901.55
2019-05-15T16:27:41.621Z,101898.38
2019-05-15T16:30:13.339Z,101902.70
2019-05-15T16:32:44.624Z,101907.59
2019-05-15T16:35:18.295Z,101900.05
2019-05-15T16:37:49.453Z,101896.98
2019-05-15T16:40:21.618Z,101902.70
2019-05-15T16:42:53.133Z,101897.27
2019-05-15T16:45:24.494Z,101898.36
2019-05-15T16:47:55.767Z,101904.37
2019-05-15T16:50:28.754Z,101896.77
2019-05-15T16:53:00.134Z,101896.19
2019-05-15T16:55:32.272Z,101902.67
2019-05-15T16:58:03.555Z,101902.16
2019-05-15T17:00:35.247Z,101905.60
2019-05-15T17:03:10.146Z,101898.73
2019-05-15T17:05:39.729Z,101901.66
2019-05-15T17:08:11.914Z,101904.10
2019-05-15T17:10:48.106Z,101898.97
2019-05-15T17:13:19.129Z,101905.45
2019-05-15T17:15:50.367Z,101905.31
2019-05-15T17:18:21.817Z,101898.52
2019-05-15T17:20:53.002Z,101901.50
2019-05-15T17:23:24.229Z,101902.69
2019-05-15T17:25:57.978Z,101898.57
2019-05-15T17:28:29.104Z,101901.89
2019-05-15T17:31:00.907Z,101905.69
2019-05-15T17:33:32.584Z,101903.30
2019-05-15T17:36:04.444Z,101908.05
2019-05-15T17:38:37.986Z,101903.09
2019-05-15T17:41:09.185Z,101903.42
2019-05-15T17:43:40.449Z,101906.41
2019-05-15T17:46:11.715Z,101908.41
2019-05-15T17:48:42.975Z,101902.48
2019-05-15T17:51:14.523Z,101906.02
2019-05-15T17:53:45.884Z,101902.71
2019-05-15T17:56:17.220Z,101903.48
2019-05-15T17:58:48.893Z,101900.59
2019-05-15T18:01:20.176Z,101894.16
2019-05-15T18:03:53.100Z,101899.86
2019-05-15T18:06:24.679Z,101897.50
2019-05-15T18:08:55.999Z,101893.90
2019-05-15T18:11:27.835Z,101892.91
2019-05-15T18:13:59.131Z,101894.48
2019-05-15T18:16:30.442Z,101892.06
2019-05-15T18:19:02.185Z,101895.74
2019-05-15T18:21:33.746Z,101891.44
2019-05-15T18:24:05.608Z,101892.03
2019-05-15T18:26:38.760Z,101898.09
2019-05-15T18:29:10.194Z,101894.34
2019-05-15T18:31:41.353Z,101887.50
2019-05-15T18:34:12.859Z,101899.41
2019-05-15T18:36:44.104Z,101890.87
2019-05-15T18:39:15.323Z,101889.88
2019-05-15T18:41:48.529Z,101892.05
2019-05-15T18:44:19.669Z,101896.75
2019-05-15T18:46:51.235Z,101895.76
2019-05-15T18:49:22.551Z,101892.95
2019-05-15T18:51:53.730Z,101895.94
2019-05-15T18:54:24.882Z,101890.16
2019-05-15T18:56:58.467Z,101901.55
2019-05-15T18:59:29.508Z,101898.43
2019-05-15T19:02:00.699Z,101894.27
2019-05-15T19:04:31.987Z,101900.33
2019-05-15T19:07:05.319Z,101895.36
2019-05-15T19:09:38.713Z,101897.94
2019-05-15T19:12:11.099Z,101901.83
2019-05-15T19:14:42.400Z,101905.20
2019-05-15T19:17:13.610Z,101906.84
2019-05-15T19:19:44.777Z,101909.33
2019-05-15T19:22:19.061Z,101910.64
2019-05-15T19:24:50.218Z,101911.61
2019-05-15T19:27:21.493Z,101913.42
2019-05-15T19:29:52.728Z,101916.62
2019-05-15T19:32:24.113Z,101915.15
2019-05-15T19:34:55.333Z,101919.03
2019-05-15T19:37:28.657Z,101917.63
2019-05-15T19:39:59.350Z,101920.28
2019-05-15T19:42:30.590Z,101916.48
2019-05-15T19:45:01.857Z,101916.00
2019-05-15T19:47:33.159Z,101916.32
2019-05-15T19:50:04.794Z,101914.00
2019-05-15T19:52:36.424Z,101910.08
2019-05-15T19:55:09.037Z,101905.95
2019-05-15T19:57:40.407Z,101907.59
2019-05-15T20:00:12.933Z,101904.87
2019-05-15T20:02:44.297Z,101911.95
2019-05-15T20:05:15.711Z,101913.59
2019-05-15T20:07:49.942Z,101913.11
2019-05-15T20:10:21.295Z,101907.67
2019-05-15T20:12:52.536Z,101906.23
2019-05-15T20:15:23.956Z,101904.75
2019-05-15T20:17:56.322Z,101904.27
2019-05-15T20:20:29.565Z,101902.34
2019-05-15T20:23:00.745Z,101900.53
2019-05-15T20:25:32.012Z,101893.73
2019-05-15T20:28:03.431Z,101898.53
2019-05-15T20:30:34.755Z,101895.29
2019-05-15T20:33:08.783Z,101897.36
2019-05-15T20:35:39.646Z,101894.61
2019-05-15T20:38:11.048Z,101889.64
2019-05-15T20:40:43.517Z,101886.44
2019-05-15T20:43:14.774Z,101883.11
2019-05-15T20:45:48.412Z,101885.15
2019-05-15T20:48:21.063Z,101886.91
2019-05-15T20:50:52.431Z,101881.94
2019-05-15T20:53:23.915Z,101879.09
2019-05-15T20:55:55.209Z,101882.41
2019-05-15T20:58:26.792Z,101873.28
2019-05-15T21:00:59.209Z,101879.71
2019-05-15T21:03:30.773Z,101877.22
2019-05-15T21:06:02.007Z,101873.05
2019-05-15T21:08:33.277Z,101869.84
2019-05-15T21:11:04.713Z,101864.28
2019-05-15T21:13:36.238Z,101865.43
2019-05-15T21:16:09.242Z,101867.90
2019-05-15T21:18:41.577Z,101865.89
2019-05-15T21:21:13.056Z,101861.73
2019-05-15T21:23:44.387Z,101867.75
2019-05-15T21:26:15.600Z,101857.83
2019-05-15T21:28:48.177Z,101855.41
2019-05-15T21:31:21.815Z,101848.73
2019-05-15T21:33:52.373Z,101851.69
2019-05-15T21:36:23.643Z,101854.72
2019-05-15T21:38:56.117Z,101851.08
2019-05-15T21:41:27.526Z,101844.39
2019-05-15T21:43:59.390Z,101843.48
2019-05-15T21:46:30.739Z,101841.84
2019-05-15T21:49:02.008Z,101841.36
2019-05-15T21:51:33.311Z,101838.20
2019-05-15T21:54:05.502Z,101843.79
2019-05-15T21:56:38.628Z,101843.67
2019-05-15T21:59:09.942Z,101838.31
2019-05-15T22:01:41.849Z,101841.78
2019-05-15T22:04:13.371Z,101838.13
2019-05-15T22:06:44.993Z,101832.25
2019-05-15T22:09:18.649Z,101831.68
2019-05-15T22:11:50.823Z,101829.27
2019-05-15T22:14:22.029Z,101832.30
2019-05-15T22:16:53.358Z,101828.27
2019-05-15T22:19:24.555Z,101826.02
2019-05-15T22:21:58.175Z,101814.55
2019-05-15T22:24:28.794Z,101813.23
2019-05-15T22:27:00.052Z,101811.44
2019-05-15T22:29:31.260Z,101817.11
2019-05-15T22:32:02.443Z,101806.56
2019-05-15T22:34:33.642Z,101805.64
2019-05-15T22:37:04.951Z,101802.60
2019-05-15T22:39:38.410Z,101799.05
2019-05-15T22:42:10.972Z,101800.28
2019-05-15T22:44:42.546Z,101797.95
2019-05-15T22:47:13.735Z,101788.73
2019-05-15T22:49:45.041Z,101787.33
2019-05-15T22:52:18.456Z,101787.33
2019-05-15T22:54:49.274Z,101778.32
2019-05-15T22:57:20.454Z,101782.59
2019-05-15T22:59:51.819Z,101780.27
2019-05-15T23:02:23.054Z,101778.45
2019-05-15T23:04:54.231Z,101776.53
2019-05-15T23:07:28.010Z,101774.73
2019-05-15T23:09:58.890Z,101769.86
2019-05-15T23:12:30.111Z,101768.02
2019-05-15T23:15:01.601Z,101761.43
2019-05-15T23:17:33.764Z,101760.94
2019-05-15T23:20:05.354Z,101759.22
2019-05-15T23:22:38.515Z,101755.27
2019-05-15T23:25:09.534Z,101754.04
2019-05-15T23:27:40.733Z,101757.08
2019-05-15T23:30:11.932Z,101752.20
2019-05-15T23:32:43.119Z,101748.99
2019-05-15T23:35:14.623Z,101739.16
2019-05-15T23:37:45.927Z,101743.03
2019-05-15T23:40:17.998Z,101735.03
2019-05-15T23:42:49.320Z,101734.86
2019-05-15T23:45:20.496Z,101734.74
2019-05-15T23:47:51.696Z,101733.42
2019-05-15T23:50:22.922Z,101731.10
2019-05-15T23:52:54.078Z,101733.25
2019-05-15T23:55:25.264Z,101727.06
2019-05-15T23:57:58.506Z,101719.06
